x

Venice, Fl (venf1) Weather Station

2:00pm - Thu 2nd Jul 2015 All times are EDT. -4 hours from GMT.

  • Wind
    11mph, 13mph gusts
  • Sea Temp 89°f
  • Air Temp 86°f
  • Sea Pressure 1019.1mb
  • Venice, Fl
  • Venice, Fl

More Historic Weather Station data

Upgrade to MSW Pro to gain access to the past 30 days of data for over 8000 Wavebouys and Weather Stations around the globe.

Join Pro

Comparision Forecast

View Surf forecast
   
Thu 07/02 2:00pm 11 13 mph 1019.1mb 89f 86f
1:00pm 10 11 mph 1020.1mb 89f 85f
12:00pm 10 13 mph 1020.4mb 89f 85f
11:00am 10
mph
1020.1mb 88f 85f
10:00am 7
mph
1020mb 88f 84f
9:00am 5 6 mph 1019.7mb 88f 83f
8:00am 6 7 mph 1019.5mb 87f 79f
7:00am 6 7 mph 1019.1mb 88f 76f
6:00am 7
mph
1018.6mb 88f 77f
5:00am 9
mph
1018.4mb 88f 77f
4:00am 7 8 mph 1018.1mb 89f 76f
3:00am 6 7 mph 1018.5mb 88f 77f
2:00am 8 9 mph 1019mb 88f 78f
1:00am 6 7 mph 1019.7mb 89f 79f
12:00am 6 8 mph 1020.1mb 89f 79f
Wed 07/01 11:00pm 2 3 mph 1020.3mb 89f 83f
10:00pm 5 6 mph 1019.7mb 89f 83f
9:00pm 6 8 mph 1019.6mb 89f 83f
8:00pm 2 3 mph 1019.1mb 89f 88f
7:00pm 6 7 mph 1018.9mb 89f 88f
6:00pm 6
mph
1018.1mb 89f 88f
5:00pm 7 8 mph 1018.2mb 89f 88f
4:00pm 5 6 mph 1018.4mb 90f 87f
3:00pm 9 10 mph 1019.3mb 90f 86f
2:00pm 11
mph
1020mb 90f 86f
1:00pm 6
mph
1020.5mb 89f 87f
12:00pm 6 7 mph 1021mb 89f 86f
11:00am 3 5 mph 1021.1mb 88f 86f
10:00am 3 5 mph 1021.2mb 88f 84f
9:00am 7 9 mph 1020.6mb 88f 83f
8:00am 6 7 mph 1020.6mb 88f 80f
7:00am 2 3 mph 1020.4mb 88f 79f
6:00am 5 6 mph 1019.8mb 88f 79f
5:00am 5 7 mph 1019.7mb 88f 80f
4:00am 3 5 mph 1019.5mb 89f 81f
3:00am 5 6 mph 1019.5mb 89f 80f
2:00am 10 11 mph 1019.4mb 89f 80f
1:00am 5 6 mph 1019.9mb 89f 83f
12:00am 7 8 mph 1020.4mb 89f 85f
Tue 06/30 11:00pm 14 15 mph 1020.5mb 90f 85f
10:00pm 13 14 mph 1019.7mb 90f 86f
9:00pm 8 9 mph 1019mb 90f 85f
8:00pm 11 13 mph 1018.7mb 91f 86f
7:00pm 11 13 mph 1018.7mb 91f 87f
6:00pm 11 14 mph 1018.5mb 91f 87f
5:00pm 9 11 mph 1018.5mb 90f 87f
4:00pm 9 10 mph 1018.5mb 89f 87f
3:00pm 7 8 mph 1018.6mb 90f 87f
2:00pm 7 8 mph 1019.2mb 90f 86f
1:00pm 6 7 mph 1020.2mb 89f 87f
12:00pm 6 7 mph 1020.4mb 89f 87f
11:00am 6 7 mph 1020.8mb 88f 88f
10:00am 7 9 mph 1020.4mb 88f 85f
9:00am 7 9 mph 1020mb 88f 86f
8:00am 6 8 mph 1019.8mb 88f 82f
7:00am 5
mph
1019.8mb 88f 79f
6:00am 3 5 mph 1019.2mb 87f 80f
5:00am 5 6 mph 1018.7mb 88f 79f
4:00am 3
mph
1018.5mb 88f 79f
3:00am 5 6 mph 1018.4mb 88f 78f
2:00am 3
mph
1018.8mb 88f 78f
1:00am 6 7 mph 1019mb 89f 79f
12:00am 2 3 mph 1019.3mb 89f 84f
Mon 06/29 11:00pm  -  2 mph 1019.1mb 89f 84f
10:00pm 3 5 mph 1018.7mb 89f 85f
9:00pm 9 10 mph 1018.6mb 89f 85f
8:00pm 9 10 mph 1018.3mb 89f 85f
7:00pm 14 15 mph 1017.8mb 89f 86f
6:00pm 14 16 mph 1017.8mb 89f 86f
5:00pm 15 17 mph 1017.8mb 89f 86f
4:00pm 8 9 mph 1017.9mb 89f 86f
3:00pm 11 13 mph 1018.2mb 89f 85f
2:00pm 21 24 mph 1018.8mb 89f 86f
1:00pm 16 22 mph 1019.2mb 89f 82f
12:00pm 15 16 mph 1019.1mb 88f 86f
11:00am 11 14 mph 1018.8mb 88f 86f
10:00am 11 14 mph 1018.6mb 88f 86f
9:00am 8 9 mph 1018.2mb 88f 87f
8:00am 10 13 mph 1017.7mb 88f 85f
7:00am 10
mph
1017.2mb 87f 84f
6:00am 11 13 mph 1016.9mb 88f 84f
5:00am 11 14 mph 1016.6mb 88f 84f
4:00am 8 9 mph 1016.5mb 88f 84f
3:00am 7 9 mph 1016.9mb 88f 84f
2:00am 10 11 mph 1017.1mb 89f 84f
1:00am 6 7 mph 1017.3mb 89f 85f
12:00am 10 11 mph 1017.8mb 89f 85f
Sun 06/28 11:00pm 11 13 mph 1018.1mb 89f 85f
10:00pm 13
mph
1018mb 89f 85f
9:00pm 10 11 mph 1017.3mb 90f 85f
8:00pm 9 14 mph 1017.1mb 90f 85f